Kacug, Russia
Current Conditions -  °F | °C
As of 1:30 PM on Saturday 20 Dec 2014 (Local Time) from UIII Reporting Station
Light Snow Light Snow  
Wind Chill:   Ceiling: 10000
Heat Index: 14°   Visibility: 2.1mi
Dew Point: 10°   Wind: 4mph
Humidity: 86%   Direction: 180°S
Pressure: 30.33"   Gusts: NA
Location:  53.97°N, 105.9°E
Report Text: UIII 200530Z 18002MPS 3500 -SN SCT020 OVC100 M10/M12 Q1027 RESNTEMPO 0900 +SHSN VV003 RMK QFE727/0970 12490341
Loading
Personal Weather Stations






























Interactive Weather Map New forecast layout! Learn more

10-Day Weather Forecast

Advertisements
Track Severe Weather on mobile